^^
Datos históricos de la estación: Murcia-Puente Tocinos
Diario Informe para Agosto 13, 2019 Unidades:  Ingés    Métrico   Ambas
Diario Semanal Mensual Anual
  Máxima: Mínima: Promedio:
Temperatura: 84 °F 76.3 °F 79 °F
Punto de rocio: 72 °F 61.5 °F 67.8 °F
Humedad: 83.1% 47.8% 70%
Velocidad viento: 14mph 0mph 6.6mph
Racha viento: 24.2mph - -
Viento- - ENE
Presión: 30.1 in 30 in -
Precipitación: 0 in    
 
 
Tabla de datos para Agosto 13, 2019
Hora Temperatura Punto de rocio Presión Viento Velocidad viento Racha viento Humedad Intensidad lluvia(por hora) Nubes
00:04 79 °F 71.8 °F 30 in NE 5.9 mph 12.7 mph 79% 0 in
00:09 78.8 °F 71.8 °F 30 in ENE 5.9 mph 13 mph 79% 0 in
00:14 79 °F 72 °F 30 in NE 5.9 mph 10 mph 79% 0 in
00:19 79 °F 71.8 °F 30 in ENE 5.4 mph 13.5 mph 78.6% 0 in
00:24 79 °F 71.4 °F 30 in ENE 4 mph 14 mph 78% 0 in
00:29 78.6 °F 71.6 °F 30 in NE 6.2 mph 9.2 mph 79% 0 in
00:34 78.6 °F 71.6 °F 30 in NE 6.2 mph 10 mph 79% 0 in
00:39 78.6 °F 71.6 °F 30 in NE 6.2 mph 13.8 mph 79% 0 in
00:44 78.6 °F 71.6 °F 30 in NE 5.9 mph 14 mph 79% 0 in
00:49 78.6 °F 71.6 °F 30 in NE 5.6 mph 9 mph 79% 0 in
00:54 78.4 °F 71.6 °F 30 in NE 4.7 mph 8.1 mph 79% 0 in
00:59 78.4 °F 71.4 °F 30 in NE 4.7 mph 8.1 mph 79% 0 in
01:04 78.4 °F 71.6 °F 30 in NE 4.7 mph 8.1 mph 79.6% 0 in
01:09 78.4 °F 71.8 °F 30 in NE 4.6 mph 10.4 mph 80% 0 in
01:14 78.3 °F 71.6 °F 30 in NE 4.3 mph 10.7 mph 80.2% 0 in
01:19 78.3 °F 72 °F 30 in NE 4.4 mph 11 mph 81% 0 in
01:24 78.3 °F 72 °F 30 in ENE 4.7 mph 7 mph 81% 0 in
01:29 78.1 °F 71.8 °F 30 in NE 4.6 mph 9.7 mph 81% 0 in
01:34 78.1 °F 71.8 °F 30 in NE 4.3 mph 10 mph 81% 0 in
01:39 78.1 °F 71.8 °F 30 in NE 4.3 mph 7 mph 81% 0 in
01:44 77.9 °F 71.6 °F 30 in NE 4.3 mph 7.4 mph 81% 0 in
01:49 77.7 °F 71.4 °F 30 in NE 4.4 mph 9.7 mph 81% 0 in
01:54 77.7 °F 71.4 °F 30 in NE 4.7 mph 10 mph 81% 0 in
01:59 77.7 °F 71.4 °F 30 in NE 4.6 mph 8.1 mph 81% 0 in
02:04 77.7 °F 71.4 °F 30 in NE 4.3 mph 8 mph 81% 0 in
02:09 77.5 °F 71.1 °F 30 in NE 4.3 mph 7.4 mph 80.6% 0 in
02:14 77.5 °F 70.9 °F 30 in NE 4.3 mph 8.1 mph 80% 0 in
02:19 77.4 °F 70.7 °F 30 in NNE 4.4 mph 8 mph 80% 0 in
02:24 77.4 °F 70.7 °F 30 in NNE 4.7 mph 7 mph 80% 0 in
02:29 77.4 °F 70.7 °F 30 in NNE 4.5 mph 6.9 mph 80% 0 in
02:34 77.2 °F 70.5 °F 30 in NNE 4 mph 7.4 mph 80% 0 in
02:39 77.2 °F 70.5 °F 30 in NE 4.2 mph 8.1 mph 80% 0 in
02:44 77.2 °F 70.5 °F 30 in NNE 4.7 mph 8.1 mph 80% 0 in
02:49 77 °F 70.3 °F 30 in NE 4.5 mph 8 mph 80% 0 in
02:54 76.8 °F 70.2 °F 30 in NE 4 mph 6.4 mph 80% 0 in
02:59 76.8 °F 70.2 °F 30 in NE 4.1 mph 7 mph 80% 0 in
03:04 76.8 °F 70.2 °F 30 in NE 4.3 mph 7.4 mph 80% 0 in
03:09 76.8 °F 70.2 °F 30 in NE 4.4 mph 7.4 mph 80% 0 in
03:14 76.8 °F 70.2 °F 30 in NE 4.7 mph 7 mph 80% 0 in
03:19 76.8 °F 70.2 °F 30 in NE 4.5 mph 7 mph 80% 0 in
03:24 76.8 °F 70.2 °F 30 in NE 4 mph 7 mph 80% 0 in
03:29 76.6 °F 70 °F 30 in NE 4.1 mph 8.1 mph 80% 0 in
03:34 76.6 °F 70.2 °F 30 in NE 4.3 mph 8 mph 80.3% 0 in
03:39 76.6 °F 70.2 °F 30 in NNE 4.2 mph 6.9 mph 80.4% 0 in
03:44 76.6 °F 70.3 °F 30 in NNE 4 mph 7 mph 81% 0 in
03:49 76.6 °F 70.3 °F 30 in NNE 3.5 mph 5 mph 80.8% 0 in
03:54 76.6 °F 70 °F 30 in North 2 mph 3.5 mph 80% 0 in
03:59 76.6 °F 70 °F 30 in NO 1.9 mph 4.6 mph 80% 0 in
04:04 76.6 °F 70 °F 30 in NNO 1.8 mph 5 mph 80% 0 in
04:09 76.6 °F 69.8 °F 30 in NO 2.1 mph 5 mph 79.5% 0 in
04:14 76.6 °F 69.6 °F 30 in NO 2.9 mph 5 mph 79% 0 in
04:19 76.5 °F 69.6 °F 30 in NO 2.8 mph 5 mph 79.6% 0 in
04:24 76.5 °F 69.8 °F 30 in NNO 2.4 mph 5 mph 80% 0 in
04:29 76.5 °F 69.8 °F 30 in NO 2.4 mph 5.2 mph 80% 0 in
04:34 76.5 °F 69.8 °F 30 in NO 2.4 mph 5 mph 80% 0 in
04:39 76.5 °F 69.8 °F 30 in NO 2.5 mph 5 mph 80% 0 in
04:44 76.5 °F 69.8 °F 30 in NNO 2.9 mph 5 mph 80% 0 in
04:49 76.5 °F 69.8 °F 30 in NO 2.7 mph 4.6 mph 80% 0 in
04:54 76.5 °F 69.4 °F 30 in NO 2.4 mph 5 mph 79.1% 0 in
04:59 76.5 °F 69.6 °F 30 in NO 2.3 mph 5 mph 79.6% 0 in
05:04 76.5 °F 69.8 °F 30 in NO 2 mph 3.5 mph 80% 0 in
05:09 76.5 °F 69.6 °F 30 in NO 1.5 mph 3 mph 79.2% 0 in
05:14 76.5 °F 69.4 °F 30 in Calm   4.6 mph 79% 0 in
05:19 76.5 °F 69.4 °F 30 in NO 0.4 mph 5 mph 79% 0 in
05:24 76.5 °F 69.4 °F 30 in NO 1.4 mph 3 mph 79% 0 in
05:29 76.5 °F 69.4 °F 30 in NO 1.4 mph 3.6 mph 79% 0 in
05:34 76.5 °F 69.4 °F 30 in NO 1.4 mph 4 mph 79% 0 in
05:39 76.5 °F 69.4 °F 30 in NO 1.4 mph 3 mph 79% 0 in
05:44 76.6 °F 69.6 °F 30 in NO 1.4 mph 2 mph 79% 0 in
05:49 76.6 °F 69.6 °F 30 in NO 1.1 mph 3.6 mph 79% 0 in
05:54 76.6 °F 69.6 °F 30 in Calm   4 mph 79% 0 in
05:59 76.6 °F 69.6 °F 30 in Calm     79% 0 in
06:04 76.6 °F 69.6 °F 30 in Calm     79% 0 in
06:09 76.6 °F 69.6 °F 30 in Calm     79% 0 in
06:14 76.6 °F 69.6 °F 30 in Calm     79% 0 in
06:19 76.6 °F 69.6 °F 30 in Calm   3.5 mph 79% 0 in
06:24 76.6 °F 69.6 °F 30 in Calm   4.6 mph 79% 0 in
06:29 76.6 °F 69.6 °F 30 in NO 0.4 mph 5 mph 79% 0 in
06:34 76.6 °F 69.6 °F 30 in NO 1.4 mph 3.6 mph 79% 0 in
06:39 76.6 °F 69.6 °F 30 in NO 1.6 mph 4 mph 79% 0 in
06:44 76.6 °F 69.6 °F 30 in NO 2 mph 3 mph 79% 0 in
06:49 76.5 °F 69.4 °F 30 in NO 1.5 mph 4 mph 79% 0 in
06:54 76.5 °F 69.4 °F 30 in Calm   5 mph 79% 0 in
06:59 76.5 °F 69.6 °F 30 in NNE 0.6 mph 5 mph 79.4% 0 in
07:04 76.3 °F 69.3 °F 30 in NE 2 mph 5.8 mph 79% 0 in
07:09 76.3 °F 67.1 °F 30 in NE 2.5 mph 10.7 mph 73.2% 0 in
07:14 76.6 °F 66.6 °F 30 in NNE 4 mph 11 mph 71.3% 0 in
07:19 76.8 °F 66.4 °F 30 in NNE 4.6 mph 13.8 mph 70% 0 in
07:24 76.8 °F 66.4 °F 30 in NNE 6.2 mph 14 mph 70% 0 in
07:29 76.8 °F 66.4 °F 30 in NE 6.3 mph 12 mph 70% 0 in
07:34 76.8 °F 66.6 °F 30 in NE 6.4 mph 11 mph 70.8% 0 in
07:39 76.6 °F 66.6 °F 30 in NE 6.3 mph 10 mph 71% 0 in
07:44 76.6 °F 66.4 °F 30 in NE 5.9 mph 10.4 mph 71% 0 in
07:49 76.5 °F 66.7 °F 30 in NE 6 mph 10.4 mph 72% 0 in
07:54 76.5 °F 66.7 °F 30 in NE 6.2 mph 10 mph 72% 0 in
07:59 76.5 °F 66.7 °F 30 in NE 6 mph 10.7 mph 72% 0 in
08:04 76.5 °F 67.3 °F 30 in NE 5.4 mph 11 mph 73% 0 in
08:09 76.5 °F 67.3 °F 30 in NE 5.5 mph 11.8 mph 73% 0 in
08:14 76.5 °F 67.3 °F 30 in NE 5.9 mph 12 mph 73% 0 in
08:19 76.5 °F 67.5 °F 30 in NE 6 mph 12 mph 73.8% 0 in
08:24 76.5 °F 67.5 °F 30 in NNE 6.4 mph 12 mph 74% 0 in
08:29 76.3 °F 67.5 °F 30 in NNE 6.3 mph 10 mph 74% 0 in
08:34 76.3 °F 67.5 °F 30 in NNE 5.9 mph 9.2 mph 74% 0 in
08:39 76.3 °F 67.5 °F 30 in NNE 5.9 mph 11.2 mph 74% 0 in
08:44 76.3 °F 67.5 °F 30 in NNE 5.9 mph 11 mph 74% 0 in
08:49 76.5 °F 67.1 °F 30 in NNE 5.8 mph 9.2 mph 73% 0 in
08:54 76.6 °F 66.9 °F 30 in NE 5.4 mph 10.4 mph 72.3% 0 in
08:59 76.8 °F 67.1 °F 30 in NE 5.7 mph 10.7 mph 72% 0 in
09:04 76.8 °F 66.9 °F 30 in NE 6.2 mph 11 mph 71.5% 0 in
09:09 77 °F 66.9 °F 30 in NE 6 mph 10 mph 71% 0 in
09:14 77.4 °F 66.9 °F 30 in NE 5.4 mph 12.7 mph 70.6% 0 in
09:19 77.5 °F 66.9 °F 30 in NE 5.5 mph 13 mph 70% 0 in
09:24 77.5 °F 67.1 °F 30 in NE 5.9 mph 10.7 mph 70% 0 in
09:29 77.9 °F 67.1 °F 30 in NNE 6 mph 11 mph 69.3% 0 in
09:34 78.1 °F 67.1 °F 30 in NE 6.2 mph 13.8 mph 69% 0 in
09:39 78.3 °F 67.3 °F 30 in NE 6.5 mph 14 mph 69% 0 in
09:44 78.4 °F 67.3 °F 30 in NE 7.4 mph 14 mph 68.9% 0 in
09:49 78.4 °F 67.1 °F 30 in NE 7.7 mph 17.3 mph 68% 0 in
09:54 78.6 °F 67.3 °F 30 in NE 8.7 mph 17 mph 68% 0 in
09:59 79 °F 67.5 °F 30 in NE 9.1 mph 16.1 mph 68% 0 in
10:04 79 °F 67.5 °F 30 in NE 10 mph 16 mph 68% 0 in
10:09 79 °F 67.3 °F 30 in NE 9.8 mph 15 mph 67.6% 0 in
10:14 79 °F 67.5 °F 30 in NE 9.2 mph 18.5 mph 68% 0 in
10:19 79 °F 67.5 °F 30 in NE 9.8 mph 19 mph 68% 0 in
10:24 78.8 °F 67.5 °F 30 in NE 11.2 mph 17 mph 68.3% 0 in
10:29 79 °F 67.8 °F 30 in NE 10.6 mph 15 mph 69% 0 in
10:34 79 °F 68.5 °F 30 in NE 8.7 mph 16.1 mph 70.6% 0 in
10:39 78.6 °F 69.1 °F 30 in ENE 8.5 mph 16 mph 72.6% 0 in
10:44 78.4 °F 69.3 °F 30 in ENE 8.1 mph 12 mph 73.4% 0 in
10:49 78.4 °F 69.4 °F 30 in ENE 7.7 mph 13 mph 74% 0 in
10:54 78.3 °F 69.4 °F 30 in NE 6.4 mph 13 mph 74.2% 0 in
10:59 78.3 °F 69.6 °F 30 in ENE 6.7 mph 15 mph 75% 0 in
11:04 78.1 °F 69.8 °F 30 in ENE 7.4 mph 19.6 mph 75.7% 0 in
11:09 77.9 °F 69.8 °F 30 in NE 7.6 mph 20 mph 76.2% 0 in
11:14 77.5 °F 70 °F 30 in NE 8.1 mph 16 mph 77.6% 0 in
11:19 77.4 °F 70.3 °F 30 in NE 8.2 mph 17.3 mph 79% 0 in
11:24 76.8 °F 70.9 °F 30 in NE 8.5 mph 17.3 mph 81.6% 0 in
11:29 76.6 °F 71.1 °F 30 in NE 8.6 mph 17 mph 83.1% 0 in
11:34 76.8 °F 71.2 °F 30 in NE 8.7 mph 19 mph 82.8% 0 in
11:39 76.6 °F 70.3 °F 30 in NE 9.3 mph 19 mph 81% 0 in
11:44 76.3 °F 69.4 °F 30 in NE 10.7 mph 18 mph 79.4% 0 in
11:49 76.3 °F 69.1 °F 30 in NE 10.8 mph 17.3 mph 78.4% 0 in
11:54 76.5 °F 69.4 °F 30 in NE 11.2 mph 17 mph 79% 0 in
11:59 76.8 °F 69.8 °F 30 in NE 10.7 mph 16 mph 79% 0 in
12:04 77 °F 70 °F 30 in NE 9.7 mph 15 mph 79% 0 in
12:09 77 °F 70.3 °F 30 in NNE 9.4 mph 14 mph 79.6% 0 in
12:14 76.8 °F 70.3 °F 30 in NNE 8.5 mph 12 mph 80.8% 0 in
12:19 77 °F 70.7 °F 30 in NE 8.3 mph 15 mph 81% 0 in
12:24 77.4 °F 70.3 °F 30 in NE 7.6 mph 21.3 mph 78.9% 0 in
12:29 78.4 °F 69.8 °F 30 in NE 8.4 mph 21 mph 74.9% 0 in
12:34 79.2 °F 69.8 °F 30 in NE 10.7 mph 21.3 mph 73% 0 in
12:39 79.5 °F 70 °F 30 in NE 11.2 mph 21.9 mph 72.5% 0 in
12:44 80.1 °F 70 °F 30 in ENE 12.5 mph 22 mph 71.6% 0 in
12:49 80.2 °F 69.6 °F 30 in ENE 12.2 mph 21.3 mph 70.2% 0 in
12:54 79.9 °F 69.3 °F 30 in ENE 11.2 mph 21 mph 70% 0 in
12:59 80.1 °F 68.9 °F 30 in ENE 10.9 mph 19 mph 68.9% 0 in
13:04 80.4 °F 68.5 °F 30 in NE 10.2 mph 21.9 mph 67.4% 0 in
13:09 80.2 °F 68.4 °F 30 in NE 10.7 mph 23.5 mph 67% 0 in
13:14 80.2 °F 68.2 °F 30 in ENE 12.3 mph 23 mph 66.6% 0 in
13:19 80.4 °F 68 °F 30 in NE 12.3 mph 20.8 mph 65.7% 0 in
13:24 80.4 °F 67.6 °F 30 in NE 12.3 mph 22.3 mph 65% 0 in
13:29 81 °F 67.6 °F 30 in NE 12.7 mph 22 mph 64.2% 0 in
13:34 81.1 °F 67.8 °F 30 in NE 14 mph 21 mph 64% 0 in
13:39 81.5 °F 67.8 °F 30 in NE 13.4 mph 21.9 mph 63.6% 0 in
13:44 81.7 °F 67.1 °F 30 in NE 11.4 mph 22 mph 61.1% 0 in
13:49 81.7 °F 67.5 °F 30 in ENE 11.4 mph 20.8 mph 61.9% 0 in
13:54 81.7 °F 67.3 °F 30 in ENE 11.2 mph 21 mph 61.6% 0 in
13:59 82 °F 67.3 °F 30 in ENE 10.7 mph 20 mph 61.1% 0 in
14:04 82.4 °F 67.5 °F 30 in ENE 9.7 mph 19 mph 60.6% 0 in
14:09 82.6 °F 67.5 °F 30 in ENE 9.4 mph 17.3 mph 60.2% 0 in
14:14 82.6 °F 66.9 °F 30 in ENE 8.7 mph 17 mph 59.5% 0 in
14:19 82.8 °F 67.1 °F 30 in NE 8.7 mph 19.2 mph 59.1% 0 in
14:24 82.9 °F 66.6 °F 30 in ENE 8.7 mph 20 mph 57.8% 0 in
14:29 82.9 °F 66 °F 30 in ENE 9.1 mph 20 mph 56.8% 0 in
14:34 82.9 °F 66 °F 30 in ENE 10.2 mph 18.4 mph 56.9% 0 in
14:39 82.8 °F 65.5 °F 30 in NE 10.2 mph 20.7 mph 56.1% 0 in
14:44 82.8 °F 64.6 °F 30 in NE 10.2 mph 21 mph 54.4% 0 in
14:49 82.6 °F 65.5 °F 30 in NE 10.4 mph 21 mph 56.3% 0 in
14:54 82.8 °F 65.8 °F 30 in Este 11.2 mph 21.3 mph 56.5% 0 in
14:59 82.9 °F 65.3 °F 30 in ENE 11.2 mph 21 mph 55.2% 0 in
15:04 82.9 °F 65.3 °F 30 in ENE 11.4 mph 20 mph 55.4% 0 in
15:09 83.5 °F 65.3 °F 30 in Este 10.7 mph 17.5 mph 54.7% 0 in
15:14 83.1 °F 64.2 °F 30 in ENE 8.7 mph 19.6 mph 52.9% 0 in
15:19 83.3 °F 63.9 °F 30 in NE 9.3 mph 21.3 mph 52.1% 0 in
15:24 83.5 °F 64.2 °F 30 in NE 11.2 mph 21 mph 52.3% 0 in
15:29 83.3 °F 64.2 °F 30 in NE 10.9 mph 20.1 mph 52.6% 0 in
15:34 83.1 °F 64.4 °F 30 in ENE 10.2 mph 21 mph 53.3% 0 in
15:39 83.5 °F 61.5 °F 30 in NE 10.6 mph 21 mph 47.8% 0 in
15:44 83.7 °F 63 °F 30 in ENE 11.8 mph 21.9 mph 50% 0 in
15:49 83.7 °F 63.5 °F 30 in ENE 11.7 mph 22 mph 51% 0 in
15:54 83.7 °F 63.1 °F 30 in Este 11.4 mph 19.7 mph 50.2% 0 in
15:59 83.8 °F 63.7 °F 30 in ENE 11.1 mph 20 mph 50.9% 0 in
16:04 83.8 °F 63.7 °F 30 in ENE 10.2 mph 23 mph 50.8% 0 in
16:09 83.8 °F 63.9 °F 30 in ENE 10.1 mph 23 mph 51.2% 0 in
16:14 83.8 °F 63.9 °F 30 in ENE 10 mph 23 mph 51.2% 0 in
16:19 84 °F 63.7 °F 30 in ENE 9.8 mph 16 mph 50.7% 0 in
16:24 84 °F 63.9 °F 30 in NE 9.2 mph 18.4 mph 50.8% 0 in
16:29 84 °F 63.9 °F 30 in NE 9.2 mph 18.5 mph 51% 0 in
16:34 83.7 °F 63.9 °F 30 in ENE 9.2 mph 19.7 mph 51.3% 0 in
16:39 83.5 °F 63.3 °F 30 in NE 9.4 mph 20.7 mph 50.8% 0 in
16:44 83.5 °F 64.9 °F 30 in ENE 10.2 mph 21 mph 53.6% 0 in
16:49 83.8 °F 64.9 °F 30 in NE 10.1 mph 16.3 mph 53% 0 in
16:54 84 °F 64.9 °F 30 in NE 9.7 mph 20.8 mph 53% 0 in
16:59 84 °F 65.1 °F 30 in NE 9.8 mph 21 mph 53.2% 0 in
17:04 83.7 °F 65.3 °F 30 in ENE 10 mph 24.2 mph 54% 0 in
17:09 83.7 °F 64.9 °F 30 in ENE 10.1 mph 24 mph 53.5% 0 in
17:14 83.5 °F 65.5 °F 30 in ENE 10.2 mph 17.3 mph 54.7% 0 in
17:19 83.7 °F 65.7 °F 30 in NE 10.2 mph 20.8 mph 54.8% 0 in
17:24 83.1 °F 66 °F 30 in NE 10.2 mph 21 mph 56.2% 0 in
17:29 83.1 °F 65.8 °F 30 in ENE 10.1 mph 20 mph 56% 0 in
17:34 82.9 °F 66.2 °F 30 in NE 9.7 mph 17.3 mph 56.9% 0 in
17:39 82.9 °F 66 °F 30 in NE 9.8 mph 18.5 mph 56.9% 0 in
17:44 82.8 °F 65.5 °F 30 in ENE 10.2 mph 19 mph 56.1% 0 in
17:49 82.6 °F 66 °F 30 in ENE 10.2 mph 18.1 mph 57.4% 0 in
17:54 82 °F 66 °F 30 in ENE 10.2 mph 19.7 mph 58.3% 0 in
17:59 81.9 °F 65.5 °F 30 in NE 10.1 mph 20 mph 57.7% 0 in
18:04 81.9 °F 66 °F 30 in ENE 9.7 mph 18.4 mph 58.7% 0 in
18:09 82 °F 66 °F 30 in ENE 9.4 mph 18 mph 58.4% 0 in
18:14 82.2 °F 65.7 °F 30 in ENE 8.7 mph 17 mph 57.2% 0 in
18:19 82.6 °F 65.7 °F 30 in ENE 8.6 mph 17.5 mph 57% 0 in
18:24 82.2 °F 65.3 °F 30 in ENE 8.5 mph 17.3 mph 56.8% 0 in
18:29 82 °F 65.3 °F 30 in NE 8.8 mph 20.7 mph 56.9% 0 in
18:34 81.7 °F 65.5 °F 30 in NE 9.7 mph 21 mph 58.1% 0 in
18:39 81.3 °F 65.7 °F 30 in NE 9.8 mph 16.1 mph 59.1% 0 in
18:44 81.5 °F 66.2 °F 30 in ENE 10.2 mph 16.8 mph 60% 0 in
18:49 81.5 °F 66.2 °F 30 in NE 10.1 mph 17.3 mph 60% 0 in
18:54 81.7 °F 66.2 °F 30 in NE 10 mph 17 mph 59.5% 0 in
18:59 81.7 °F 66.4 °F 30 in NE 9.6 mph 16.1 mph 60% 0 in
19:04 81.7 °F 66 °F 30 in ENE 8.7 mph 18.4 mph 59.4% 0 in
19:09 81.5 °F 66.2 °F 30 in ENE 8.7 mph 18 mph 60% 0 in
19:14 81.7 °F 66 °F 30 in ENE 8.7 mph 16.1 mph 59.2% 0 in
19:19 81.3 °F 65.8 °F 30 in ENE 8.7 mph 16 mph 59.6% 0 in
19:24 81.1 °F 65.8 °F 30 in ENE 8.7 mph 15 mph 59.9% 0 in
19:29 81 °F 65.5 °F 30 in ENE 8.6 mph 15 mph 59.5% 0 in
19:34 81 °F 65.8 °F 30 in NE 8.5 mph 17.3 mph 60.4% 0 in
19:39 80.8 °F 66 °F 30 in NE 8.4 mph 17 mph 61% 0 in
19:44 80.8 °F 66 °F 30 in ENE 8.1 mph 15.2 mph 61% 0 in
19:49 80.8 °F 66 °F 30 in ENE 7.6 mph 15 mph 61% 0 in
19:54 81 °F 66.2 °F 30 in ENE 6.4 mph 14 mph 61% 0 in
19:59 81 °F 66.6 °F 30 in ENE 6.3 mph 13 mph 61.8% 0 in
20:04 81 °F 66.4 °F 30 in ENE 5.9 mph 13 mph 61.3% 0 in
20:09 80.8 °F 66 °F 30 in ENE 6 mph 13 mph 60.9% 0 in
20:14 80.4 °F 65.7 °F 30 in NE 6.2 mph 13 mph 61% 0 in
20:19 80.4 °F 66 °F 30 in ENE 6.2 mph 12.3 mph 61.7% 0 in
20:24 80.2 °F 66 °F 30 in NE 6.2 mph 13 mph 62.2% 0 in
20:29 79.9 °F 66.2 °F 30 in NE 6.3 mph 13 mph 63% 0 in
20:34 79.9 °F 66.4 °F 30 in NE 6.4 mph 13 mph 63.4% 0 in
20:39 79.7 °F 66.6 °F 30 in NE 6.3 mph 12 mph 64% 0 in
20:44 79.5 °F 66.6 °F 30 in NE 5.9 mph 12.3 mph 64.8% 0 in
20:49 79.3 °F 66 °F 30 in NE 6.3 mph 14 mph 64.2% 0 in
20:54 79.2 °F 65.8 °F 30 in NE 7.6 mph 14 mph 64% 0 in
20:59 79.2 °F 65.8 °F 30 in NE 7.3 mph 13 mph 64% 0 in
21:04 79 °F 66.2 °F 30 in NE 6.4 mph 11.2 mph 65.1% 0 in
21:09 78.6 °F 66.6 °F 30 in NE 6.3 mph 12 mph 66.5% 0 in
21:14 78.4 °F 66.7 °F 30 in NE 6.2 mph 12 mph 67.4% 0 in
21:19 78.4 °F 66.9 °F 30 in NE 6.3 mph 12 mph 68% 0 in
21:24 78.3 °F 66.9 °F 30 in NE 6.4 mph 12 mph 68.2% 0 in
21:29 78.1 °F 67.1 °F 30 in NE 6.3 mph 11 mph 69% 0 in
21:34 78.1 °F 67.1 °F 30 in NE 6.2 mph 10.4 mph 69% 0 in
21:39 77.9 °F 66.9 °F 30 in ENE 6.2 mph 10 mph 69% 0 in
21:44 77.7 °F 66.7 °F 30 in NE 5.9 mph 8.5 mph 69% 0 in
21:49 77.7 °F 67.1 °F 30 in NE 5.7 mph 9.2 mph 69.9% 0 in
21:54 77.5 °F 67.1 °F 30 in NE 5.2 mph 10.4 mph 70% 0 in
21:59 77.5 °F 66.9 °F 30 in NE 5.7 mph 9.7 mph 70% 0 in
22:04 77.4 °F 66.7 °F 30 in NE 6.2 mph 10 mph 70% 0 in
22:09 77.4 °F 67.1 °F 30 in NE 6.2 mph 9.2 mph 70.8% 0 in
22:14 77.4 °F 67.3 °F 30 in NE 5.9 mph 9 mph 71% 0 in
22:19 77.4 °F 67.3 °F 30 in NE 5.6 mph 8.1 mph 71% 0 in
22:24 77.4 °F 67.3 °F 30 in NE 4.7 mph 8 mph 71% 0 in
22:29 77.4 °F 67.3 °F 30 in ENE 4.5 mph 7.4 mph 71% 0 in
22:34 77.4 °F 67.1 °F 30 in NE 4 mph 7.4 mph 71% 0 in
22:39 77.2 °F 66.9 °F 30 in NE 4 mph 7 mph 71% 0 in
22:44 77.2 °F 67.5 °F 30 in NE 4 mph 6.2 mph 71.9% 0 in
22:49 77.2 °F 67.5 °F 30 in ENE 3.8 mph 6 mph 72% 0 in
22:54 77.2 °F 67.5 °F 30 in NE 3.1 mph 5.2 mph 72% 0 in
22:59 77 °F 67.5 °F 30 in NE 3 mph 5.8 mph 72% 0 in
23:04 77 °F 67.3 °F 30.1 in NE 2.9 mph 6 mph 72% 0 in
23:09 76.8 °F 67.3 °F 30.1 in NE 3.1 mph 6.9 mph 72.2% 0 in
23:14 76.8 °F 67.5 °F 30.1 in ENE 3.6 mph 7 mph 73% 0 in
23:19 76.8 °F 67.5 °F 30.1 in ENE 3.6 mph 5.8 mph 73% 0 in
23:24 76.6 °F 67.3 °F 30.1 in ENE 3.6 mph 6 mph 73% 0 in
23:29 76.6 °F 67.3 °F 30.1 in NE 3.5 mph 5.2 mph 73% 0 in
23:34 76.6 °F 67.3 °F 30.1 in NE 3.1 mph 5.2 mph 73% 0 in
23:39 76.6 °F 67.3 °F 30.1 in NE 3.1 mph 5.9 mph 73% 0 in
23:44 76.6 °F 67.5 °F 30.1 in ENE 3.1 mph 6 mph 73% 0 in
23:49 76.6 °F 67.3 °F 30.1 in NE 3 mph 5 mph 73% 0 in
23:54 76.6 °F 67.3 °F 30.1 in NE 2.9 mph 5 mph 73% 0 in
23:59 76.6 °F 67.3 °F 30.1 in ENE 2.6 mph 4.6 mph 73% 0 in
Murcia-Puente Tocinos, España
Compliments of Weather Underground - 3 mb

La estación de MeteoMurcia.com, publica sus datos en los siguientes proyectos:

Weather Underground PWS IMURCIAP2 Meteoclimatic www.awekas.at

W3Counter
Web Analytics